sensor_id;sensor_type;location;lat;lon;timestamp;P1;durP1;ratioP1;P2;durP2;ratioP2
2570;SDS011;1295;51.130;6.732;2023-07-16T00:00:05;52.97;;;5.30;;
2570;SDS011;1295;51.130;6.732;2023-07-16T00:02:32;57.10;;;4.70;;
2570;SDS011;1295;51.130;6.732;2023-07-16T00:04:58;54.30;;;5.23;;
2570;SDS011;1295;51.130;6.732;2023-07-16T00:07:24;54.03;;;5.70;;
2570;SDS011;1295;51.130;6.732;2023-07-16T00:09:49;54.40;;;5.07;;
2570;SDS011;1295;51.130;6.732;2023-07-16T00:12:15;51.23;;;5.33;;
2570;SDS011;1295;51.130;6.732;2023-07-16T00:14:40;52.07;;;4.67;;
2570;SDS011;1295;51.130;6.732;2023-07-16T00:17:07;53.70;;;6.00;;
2570;SDS011;1295;51.130;6.732;2023-07-16T00:19:33;51.90;;;6.87;;
2570;SDS011;1295;51.130;6.732;2023-07-16T00:21:58;52.40;;;7.13;;
2570;SDS011;1295;51.130;6.732;2023-07-16T00:24:24;53.40;;;5.30;;
2570;SDS011;1295;51.130;6.732;2023-07-16T00:26:50;55.77;;;4.40;;
2570;SDS011;1295;51.130;6.732;2023-07-16T00:29:16;50.20;;;4.00;;
2570;SDS011;1295;51.130;6.732;2023-07-16T00:31:42;51.63;;;4.00;;
2570;SDS011;1295;51.130;6.732;2023-07-16T00:34:08;54.00;;;3.90;;
2570;SDS011;1295;51.130;6.732;2023-07-16T00:36:33;56.80;;;3.90;;
2570;SDS011;1295;51.130;6.732;2023-07-16T00:38:59;52.07;;;3.90;;
2570;SDS011;1295;51.130;6.732;2023-07-16T00:41:25;53.37;;;4.10;;
2570;SDS011;1295;51.130;6.732;2023-07-16T00:43:51;56.20;;;3.63;;
2570;SDS011;1295;51.130;6.732;2023-07-16T00:46:17;54.20;;;3.80;;
2570;SDS011;1295;51.130;6.732;2023-07-16T00:48:43;53.53;;;3.50;;
2570;SDS011;1295;51.130;6.732;2023-07-16T00:51:09;56.47;;;4.30;;
2570;SDS011;1295;51.130;6.732;2023-07-16T00:53:34;57.07;;;3.80;;
2570;SDS011;1295;51.130;6.732;2023-07-16T00:56:00;53.37;;;3.57;;
2570;SDS011;1295;51.130;6.732;2023-07-16T00:58:25;52.33;;;3.40;;
2570;SDS011;1295;51.130;6.732;2023-07-16T01:00:51;57.40;;;4.03;;
2570;SDS011;1295;51.130;6.732;2023-07-16T01:03:17;60.70;;;4.20;;
2570;SDS011;1295;51.130;6.732;2023-07-16T01:05:47;51.20;;;3.17;;
2570;SDS011;1295;51.130;6.732;2023-07-16T01:08:11;50.77;;;3.03;;
2570;SDS011;1295;51.130;6.732;2023-07-16T01:10:37;56.70;;;3.40;;
2570;SDS011;1295;51.130;6.732;2023-07-16T01:13:03;53.80;;;3.83;;
2570;SDS011;1295;51.130;6.732;2023-07-16T01:15:28;53.80;;;3.73;;
2570;SDS011;1295;51.130;6.732;2023-07-16T01:17:54;57.03;;;4.03;;
2570;SDS011;1295;51.130;6.732;2023-07-16T01:20:20;52.97;;;3.70;;
2570;SDS011;1295;51.130;6.732;2023-07-16T01:22:51;56.30;;;3.80;;
2570;SDS011;1295;51.130;6.732;2023-07-16T01:28:05;54.80;;;3.77;;
2570;SDS011;1295;51.130;6.732;2023-07-16T01:30:31;57.67;;;4.33;;
2570;SDS011;1295;51.130;6.732;2023-07-16T01:32:56;52.93;;;4.80;;
2570;SDS011;1295;51.130;6.732;2023-07-16T01:35:23;60.50;;;7.17;;
2570;SDS011;1295;51.130;6.732;2023-07-16T01:37:48;57.37;;;7.50;;
2570;SDS011;1295;51.130;6.732;2023-07-16T01:40:14;57.13;;;9.33;;
2570;SDS011;1295;51.130;6.732;2023-07-16T01:42:40;56.20;;;9.73;;
2570;SDS011;1295;51.130;6.732;2023-07-16T01:45:06;58.33;;;10.27;;
2570;SDS011;1295;51.130;6.732;2023-07-16T01:47:39;56.47;;;8.90;;
2570;SDS011;1295;51.130;6.732;2023-07-16T01:50:13;54.87;;;10.20;;
2570;SDS011;1295;51.130;6.732;2023-07-16T01:52:38;55.73;;;11.57;;
2570;SDS011;1295;51.130;6.732;2023-07-16T01:55:04;55.83;;;10.67;;
2570;SDS011;1295;51.130;6.732;2023-07-16T01:57:31;53.53;;;10.27;;
2570;SDS011;1295;51.130;6.732;2023-07-16T01:59:57;57.33;;;10.07;;
2570;SDS011;1295;51.130;6.732;2023-07-16T02:02:23;56.90;;;10.83;;
2570;SDS011;1295;51.130;6.732;2023-07-16T02:04:48;56.27;;;8.30;;
2570;SDS011;1295;51.130;6.732;2023-07-16T02:07:15;55.33;;;9.13;;
2570;SDS011;1295;51.130;6.732;2023-07-16T02:09:40;57.07;;;7.47;;
2570;SDS011;1295;51.130;6.732;2023-07-16T02:12:06;57.33;;;10.57;;
2570;SDS011;1295;51.130;6.732;2023-07-16T02:14:32;54.83;;;8.83;;
2570;SDS011;1295;51.130;6.732;2023-07-16T02:16:57;57.67;;;9.20;;
2570;SDS011;1295;51.130;6.732;2023-07-16T02:19:23;54.67;;;7.60;;
2570;SDS011;1295;51.130;6.732;2023-07-16T02:22:04;53.93;;;10.73;;
2570;SDS011;1295;51.130;6.732;2023-07-16T02:24:30;54.10;;;9.17;;
2570;SDS011;1295;51.130;6.732;2023-07-16T02:26:57;52.30;;;6.00;;
2570;SDS011;1295;51.130;6.732;2023-07-16T02:29:23;58.30;;;9.03;;
2570;SDS011;1295;51.130;6.732;2023-07-16T02:31:49;56.07;;;10.03;;
2570;SDS011;1295;51.130;6.732;2023-07-16T02:34:14;55.47;;;5.00;;
2570;SDS011;1295;51.130;6.732;2023-07-16T02:36:40;58.23;;;7.50;;
2570;SDS011;1295;51.130;6.732;2023-07-16T02:39:06;59.63;;;7.70;;
2570;SDS011;1295;51.130;6.732;2023-07-16T02:41:31;52.10;;;4.27;;
2570;SDS011;1295;51.130;6.732;2023-07-16T02:43:59;55.67;;;5.87;;
2570;SDS011;1295;51.130;6.732;2023-07-16T02:46:23;54.83;;;5.57;;
2570;SDS011;1295;51.130;6.732;2023-07-16T02:48:49;55.30;;;7.40;;
2570;SDS011;1295;51.130;6.732;2023-07-16T02:51:15;55.70;;;6.40;;
2570;SDS011;1295;51.130;6.732;2023-07-16T02:53:40;55.20;;;4.83;;
2570;SDS011;1295;51.130;6.732;2023-07-16T02:56:06;53.47;;;5.63;;
2570;SDS011;1295;51.130;6.732;2023-07-16T02:58:32;52.33;;;5.23;;
2570;SDS011;1295;51.130;6.732;2023-07-16T03:00:57;53.57;;;5.63;;
2570;SDS011;1295;51.130;6.732;2023-07-16T03:03:23;55.73;;;5.87;;
2570;SDS011;1295;51.130;6.732;2023-07-16T03:05:48;57.10;;;6.03;;
2570;SDS011;1295;51.130;6.732;2023-07-16T03:08:14;57.03;;;6.07;;
2570;SDS011;1295;51.130;6.732;2023-07-16T03:10:40;54.80;;;5.60;;
2570;SDS011;1295;51.130;6.732;2023-07-16T03:13:05;52.70;;;4.93;;
2570;SDS011;1295;51.130;6.732;2023-07-16T03:15:31;54.50;;;5.87;;
2570;SDS011;1295;51.130;6.732;2023-07-16T03:17:56;55.17;;;5.57;;
2570;SDS011;1295;51.130;6.732;2023-07-16T03:20:22;51.70;;;5.00;;
2570;SDS011;1295;51.130;6.732;2023-07-16T03:22:48;61.10;;;5.70;;
2570;SDS011;1295;51.130;6.732;2023-07-16T03:25:13;56.30;;;4.53;;
2570;SDS011;1295;51.130;6.732;2023-07-16T03:27:40;55.97;;;4.63;;
2570;SDS011;1295;51.130;6.732;2023-07-16T03:30:06;64.83;;;4.90;;
2570;SDS011;1295;51.130;6.732;2023-07-16T03:32:33;56.13;;;4.00;;
2570;SDS011;1295;51.130;6.732;2023-07-16T03:34:58;53.73;;;3.73;;
2570;SDS011;1295;51.130;6.732;2023-07-16T03:37:24;55.53;;;3.60;;
2570;SDS011;1295;51.130;6.732;2023-07-16T03:39:50;53.53;;;4.10;;
2570;SDS011;1295;51.130;6.732;2023-07-16T03:42:15;56.00;;;4.00;;
2570;SDS011;1295;51.130;6.732;2023-07-16T03:44:41;53.53;;;4.87;;
2570;SDS011;1295;51.130;6.732;2023-07-16T03:47:07;56.03;;;5.00;;
2570;SDS011;1295;51.130;6.732;2023-07-16T03:49:32;58.50;;;4.10;;
2570;SDS011;1295;51.130;6.732;2023-07-16T03:51:58;63.60;;;5.50;;
2570;SDS011;1295;51.130;6.732;2023-07-16T03:54:23;54.97;;;4.60;;
2570;SDS011;1295;51.130;6.732;2023-07-16T03:57:05;54.67;;;4.43;;
2570;SDS011;1295;51.130;6.732;2023-07-16T03:59:31;54.47;;;5.07;;
2570;SDS011;1295;51.130;6.732;2023-07-16T04:01:57;58.00;;;5.50;;
2570;SDS011;1295;51.130;6.732;2023-07-16T04:04:22;53.57;;;5.17;;
2570;SDS011;1295;51.130;6.732;2023-07-16T04:06:48;54.20;;;5.17;;
2570;SDS011;1295;51.130;6.732;2023-07-16T04:09:14;54.40;;;5.10;;
2570;SDS011;1295;51.130;6.732;2023-07-16T04:11:39;55.70;;;4.90;;
2570;SDS011;1295;51.130;6.732;2023-07-16T04:14:06;51.57;;;4.27;;
2570;SDS011;1295;51.130;6.732;2023-07-16T04:16:31;61.83;;;4.63;;
2570;SDS011;1295;51.130;6.732;2023-07-16T04:18:57;57.47;;;5.37;;
2570;SDS011;1295;51.130;6.732;2023-07-16T04:21:23;55.73;;;5.53;;
2570;SDS011;1295;51.130;6.732;2023-07-16T04:23:49;60.57;;;5.83;;
2570;SDS011;1295;51.130;6.732;2023-07-16T04:26:14;57.07;;;5.67;;
2570;SDS011;1295;51.130;6.732;2023-07-16T04:28:48;58.57;;;5.70;;
2570;SDS011;1295;51.130;6.732;2023-07-16T04:31:14;58.77;;;6.37;;
2570;SDS011;1295;51.130;6.732;2023-07-16T04:33:40;58.30;;;5.57;;
2570;SDS011;1295;51.130;6.732;2023-07-16T04:36:05;55.33;;;5.87;;
2570;SDS011;1295;51.130;6.732;2023-07-16T04:38:31;56.83;;;5.73;;
2570;SDS011;1295;51.130;6.732;2023-07-16T04:40:57;65.03;;;6.33;;
2570;SDS011;1295;51.130;6.732;2023-07-16T04:43:22;57.00;;;5.20;;
2570;SDS011;1295;51.130;6.732;2023-07-16T04:45:48;56.83;;;5.37;;
2570;SDS011;1295;51.130;6.732;2023-07-16T04:48:13;56.17;;;5.13;;
2570;SDS011;1295;51.130;6.732;2023-07-16T04:50:39;55.40;;;6.67;;
2570;SDS011;1295;51.130;6.732;2023-07-16T04:53:05;55.17;;;6.90;;
2570;SDS011;1295;51.130;6.732;2023-07-16T04:55:35;57.03;;;7.60;;
2570;SDS011;1295;51.130;6.732;2023-07-16T04:58:01;59.03;;;7.03;;
2570;SDS011;1295;51.130;6.732;2023-07-16T05:00:26;57.87;;;6.80;;
2570;SDS011;1295;51.130;6.732;2023-07-16T05:02:52;57.40;;;6.83;;
2570;SDS011;1295;51.130;6.732;2023-07-16T05:05:17;57.93;;;6.00;;
2570;SDS011;1295;51.130;6.732;2023-07-16T05:07:43;60.40;;;6.13;;
2570;SDS011;1295;51.130;6.732;2023-07-16T05:10:09;54.40;;;6.30;;
2570;SDS011;1295;51.130;6.732;2023-07-16T05:12:35;54.60;;;7.90;;
2570;SDS011;1295;51.130;6.732;2023-07-16T05:15:02;55.73;;;5.80;;
2570;SDS011;1295;51.130;6.732;2023-07-16T05:17:27;58.40;;;6.27;;
2570;SDS011;1295;51.130;6.732;2023-07-16T05:19:53;57.53;;;7.23;;
2570;SDS011;1295;51.130;6.732;2023-07-16T05:22:19;55.00;;;6.17;;
2570;SDS011;1295;51.130;6.732;2023-07-16T05:24:45;60.43;;;7.07;;
2570;SDS011;1295;51.130;6.732;2023-07-16T05:27:11;58.27;;;6.73;;
2570;SDS011;1295;51.130;6.732;2023-07-16T05:29:36;55.10;;;6.43;;
2570;SDS011;1295;51.130;6.732;2023-07-16T05:32:02;53.67;;;8.80;;
2570;SDS011;1295;51.130;6.732;2023-07-16T05:34:28;56.30;;;6.07;;
2570;SDS011;1295;51.130;6.732;2023-07-16T05:36:54;55.43;;;6.00;;
2570;SDS011;1295;51.130;6.732;2023-07-16T05:39:20;58.60;;;7.43;;
2570;SDS011;1295;51.130;6.732;2023-07-16T05:41:45;61.93;;;6.87;;
2570;SDS011;1295;51.130;6.732;2023-07-16T05:44:11;61.60;;;7.03;;
2570;SDS011;1295;51.130;6.732;2023-07-16T05:46:37;59.70;;;6.60;;
2570;SDS011;1295;51.130;6.732;2023-07-16T05:49:02;55.50;;;6.50;;
2570;SDS011;1295;51.130;6.732;2023-07-16T05:51:28;60.40;;;7.10;;
2570;SDS011;1295;51.130;6.732;2023-07-16T05:53:53;60.97;;;6.10;;
2570;SDS011;1295;51.130;6.732;2023-07-16T05:56:19;61.67;;;7.30;;
2570;SDS011;1295;51.130;6.732;2023-07-16T05:58:45;64.67;;;8.43;;
2570;SDS011;1295;51.130;6.732;2023-07-16T06:01:10;60.80;;;7.53;;
2570;SDS011;1295;51.130;6.732;2023-07-16T06:03:37;56.97;;;9.00;;
2570;SDS011;1295;51.130;6.732;2023-07-16T06:06:02;57.23;;;7.87;;
2570;SDS011;1295;51.130;6.732;2023-07-16T06:08:28;61.13;;;8.17;;
2570;SDS011;1295;51.130;6.732;2023-07-16T06:10:55;60.03;;;7.03;;
2570;SDS011;1295;51.130;6.732;2023-07-16T06:13:25;60.60;;;7.63;;
2570;SDS011;1295;51.130;6.732;2023-07-16T06:15:51;59.33;;;7.27;;
2570;SDS011;1295;51.130;6.732;2023-07-16T06:18:16;59.90;;;7.13;;
2570;SDS011;1295;51.130;6.732;2023-07-16T06:20:43;58.00;;;7.20;;
2570;SDS011;1295;51.130;6.732;2023-07-16T06:23:08;62.17;;;7.27;;
2570;SDS011;1295;51.130;6.732;2023-07-16T06:25:33;58.57;;;6.83;;
2570;SDS011;1295;51.130;6.732;2023-07-16T06:28:00;58.30;;;6.47;;
2570;SDS011;1295;51.130;6.732;2023-07-16T06:30:25;58.30;;;7.40;;
2570;SDS011;1295;51.130;6.732;2023-07-16T06:32:51;65.13;;;7.97;;
2570;SDS011;1295;51.130;6.732;2023-07-16T06:35:17;78.27;;;18.77;;
2570;SDS011;1295;51.130;6.732;2023-07-16T06:37:42;59.87;;;6.90;;
2570;SDS011;1295;51.130;6.732;2023-07-16T06:40:08;62.77;;;8.67;;
2570;SDS011;1295;51.130;6.732;2023-07-16T06:42:34;58.93;;;6.37;;
2570;SDS011;1295;51.130;6.732;2023-07-16T06:45:00;61.50;;;7.70;;
2570;SDS011;1295;51.130;6.732;2023-07-16T06:47:26;59.40;;;8.20;;
2570;SDS011;1295;51.130;6.732;2023-07-16T06:49:52;58.73;;;6.73;;
2570;SDS011;1295;51.130;6.732;2023-07-16T06:52:19;62.33;;;6.50;;
2570;SDS011;1295;51.130;6.732;2023-07-16T06:54:44;64.63;;;7.13;;
2570;SDS011;1295;51.130;6.732;2023-07-16T06:57:10;58.73;;;6.60;;
2570;SDS011;1295;51.130;6.732;2023-07-16T06:59:36;64.70;;;8.37;;
2570;SDS011;1295;51.130;6.732;2023-07-16T07:02:01;63.70;;;7.37;;
2570;SDS011;1295;51.130;6.732;2023-07-16T07:04:27;66.20;;;7.03;;
2570;SDS011;1295;51.130;6.732;2023-07-16T07:06:53;61.83;;;7.47;;
2570;SDS011;1295;51.130;6.732;2023-07-16T07:09:19;59.57;;;8.50;;
2570;SDS011;1295;51.130;6.732;2023-07-16T07:11:45;57.60;;;7.00;;
2570;SDS011;1295;51.130;6.732;2023-07-16T07:14:17;61.87;;;7.70;;
2570;SDS011;1295;51.130;6.732;2023-07-16T07:16:43;63.20;;;6.87;;
2570;SDS011;1295;51.130;6.732;2023-07-16T07:19:10;65.40;;;7.77;;
2570;SDS011;1295;51.130;6.732;2023-07-16T07:21:36;62.50;;;7.20;;
2570;SDS011;1295;51.130;6.732;2023-07-16T07:24:02;61.23;;;8.10;;
2570;SDS011;1295;51.130;6.732;2023-07-16T07:26:28;62.97;;;6.60;;
2570;SDS011;1295;51.130;6.732;2023-07-16T07:28:53;61.93;;;7.27;;
2570;SDS011;1295;51.130;6.732;2023-07-16T07:31:20;70.10;;;7.87;;
2570;SDS011;1295;51.130;6.732;2023-07-16T07:33:45;65.60;;;7.77;;
2570;SDS011;1295;51.130;6.732;2023-07-16T07:36:11;66.43;;;7.60;;
2570;SDS011;1295;51.130;6.732;2023-07-16T07:38:37;64.27;;;7.00;;
2570;SDS011;1295;51.130;6.732;2023-07-16T07:41:04;63.53;;;6.63;;
2570;SDS011;1295;51.130;6.732;2023-07-16T07:43:30;68.60;;;7.20;;
2570;SDS011;1295;51.130;6.732;2023-07-16T07:45:55;59.10;;;7.00;;
2570;SDS011;1295;51.130;6.732;2023-07-16T07:48:21;62.30;;;6.60;;
2570;SDS011;1295;51.130;6.732;2023-07-16T07:50:47;61.67;;;7.10;;
2570;SDS011;1295;51.130;6.732;2023-07-16T07:53:13;69.70;;;8.17;;
2570;SDS011;1295;51.130;6.732;2023-07-16T07:55:39;60.43;;;6.50;;
2570;SDS011;1295;51.130;6.732;2023-07-16T07:58:04;61.33;;;7.13;;
2570;SDS011;1295;51.130;6.732;2023-07-16T08:00:30;59.37;;;6.67;;
2570;SDS011;1295;51.130;6.732;2023-07-16T08:02:56;62.73;;;5.93;;
2570;SDS011;1295;51.130;6.732;2023-07-16T08:05:21;60.10;;;9.37;;
2570;SDS011;1295;51.130;6.732;2023-07-16T08:07:47;60.83;;;6.63;;
2570;SDS011;1295;51.130;6.732;2023-07-16T08:10:13;61.10;;;7.47;;
2570;SDS011;1295;51.130;6.732;2023-07-16T08:12:38;57.00;;;6.33;;
2570;SDS011;1295;51.130;6.732;2023-07-16T08:15:04;57.97;;;6.80;;
2570;SDS011;1295;51.130;6.732;2023-07-16T08:17:32;64.10;;;7.50;;
2570;SDS011;1295;51.130;6.732;2023-07-16T08:19:57;59.07;;;7.30;;
2570;SDS011;1295;51.130;6.732;2023-07-16T08:22:23;60.50;;;7.43;;
2570;SDS011;1295;51.130;6.732;2023-07-16T08:24:49;58.97;;;10.10;;
2570;SDS011;1295;51.130;6.732;2023-07-16T08:27:14;60.70;;;12.00;;
2570;SDS011;1295;51.130;6.732;2023-07-16T08:29:41;60.30;;;9.33;;
2570;SDS011;1295;51.130;6.732;2023-07-16T08:32:07;65.40;;;10.00;;
2570;SDS011;1295;51.130;6.732;2023-07-16T08:34:33;64.07;;;10.87;;
2570;SDS011;1295;51.130;6.732;2023-07-16T08:36:58;58.27;;;8.27;;
2570;SDS011;1295;51.130;6.732;2023-07-16T08:39:24;59.00;;;9.77;;
2570;SDS011;1295;51.130;6.732;2023-07-16T08:41:50;62.80;;;10.93;;
2570;SDS011;1295;51.130;6.732;2023-07-16T08:44:15;60.20;;;8.03;;
2570;SDS011;1295;51.130;6.732;2023-07-16T08:46:41;62.50;;;11.40;;
2570;SDS011;1295;51.130;6.732;2023-07-16T08:49:07;64.13;;;8.57;;
2570;SDS011;1295;51.130;6.732;2023-07-16T08:51:32;56.90;;;7.50;;
2570;SDS011;1295;51.130;6.732;2023-07-16T08:53:58;62.40;;;8.80;;
2570;SDS011;1295;51.130;6.732;2023-07-16T08:56:23;59.73;;;13.53;;
2570;SDS011;1295;51.130;6.732;2023-07-16T08:58:49;59.37;;;7.33;;
2570;SDS011;1295;51.130;6.732;2023-07-16T09:01:15;60.47;;;7.60;;
2570;SDS011;1295;51.130;6.732;2023-07-16T09:03:40;61.83;;;7.20;;
2570;SDS011;1295;51.130;6.732;2023-07-16T09:06:06;59.20;;;8.40;;
2570;SDS011;1295;51.130;6.732;2023-07-16T09:08:32;56.63;;;7.43;;
2570;SDS011;1295;51.130;6.732;2023-07-16T09:10:58;58.57;;;8.57;;
2570;SDS011;1295;51.130;6.732;2023-07-16T09:13:23;59.60;;;8.13;;
2570;SDS011;1295;51.130;6.732;2023-07-16T09:15:51;64.80;;;8.67;;
2570;SDS011;1295;51.130;6.732;2023-07-16T09:18:19;59.00;;;10.07;;
2570;SDS011;1295;51.130;6.732;2023-07-16T09:20:45;55.50;;;6.33;;
2570;SDS011;1295;51.130;6.732;2023-07-16T09:23:10;55.50;;;8.40;;
2570;SDS011;1295;51.130;6.732;2023-07-16T09:25:36;56.33;;;8.47;;
2570;SDS011;1295;51.130;6.732;2023-07-16T09:28:02;60.20;;;7.80;;
2570;SDS011;1295;51.130;6.732;2023-07-16T09:30:30;62.67;;;8.80;;
2570;SDS011;1295;51.130;6.732;2023-07-16T09:32:56;67.37;;;9.07;;
2570;SDS011;1295;51.130;6.732;2023-07-16T09:35:22;59.63;;;6.73;;
2570;SDS011;1295;51.130;6.732;2023-07-16T09:37:47;64.90;;;6.13;;
2570;SDS011;1295;51.130;6.732;2023-07-16T09:40:13;60.13;;;6.60;;
2570;SDS011;1295;51.130;6.732;2023-07-16T09:42:41;58.20;;;5.53;;
2570;SDS011;1295;51.130;6.732;2023-07-16T09:45:06;57.23;;;7.30;;
2570;SDS011;1295;51.130;6.732;2023-07-16T09:47:32;59.67;;;8.33;;
2570;SDS011;1295;51.130;6.732;2023-07-16T09:49:58;58.70;;;8.17;;
2570;SDS011;1295;51.130;6.732;2023-07-16T09:52:24;63.03;;;8.53;;
2570;SDS011;1295;51.130;6.732;2023-07-16T09:54:49;57.97;;;6.20;;
2570;SDS011;1295;51.130;6.732;2023-07-16T09:57:15;59.67;;;6.80;;
2570;SDS011;1295;51.130;6.732;2023-07-16T09:59:41;57.00;;;9.80;;
2570;SDS011;1295;51.130;6.732;2023-07-16T10:02:06;58.03;;;6.50;;
2570;SDS011;1295;51.130;6.732;2023-07-16T10:04:38;57.40;;;6.07;;
2570;SDS011;1295;51.130;6.732;2023-07-16T10:07:03;59.43;;;6.40;;
2570;SDS011;1295;51.130;6.732;2023-07-16T10:09:39;56.97;;;8.10;;
2570;SDS011;1295;51.130;6.732;2023-07-16T10:12:12;57.87;;;5.90;;
2570;SDS011;1295;51.130;6.732;2023-07-16T10:14:40;55.13;;;5.20;;
2570;SDS011;1295;51.130;6.732;2023-07-16T10:17:06;60.97;;;6.50;;
2570;SDS011;1295;51.130;6.732;2023-07-16T10:19:34;55.47;;;5.80;;
2570;SDS011;1295;51.130;6.732;2023-07-16T10:21:57;53.20;;;5.23;;
2570;SDS011;1295;51.130;6.732;2023-07-16T10:24:23;59.23;;;6.10;;
2570;SDS011;1295;51.130;6.732;2023-07-16T10:26:48;57.30;;;5.67;;
2570;SDS011;1295;51.130;6.732;2023-07-16T10:29:14;60.03;;;5.67;;
2570;SDS011;1295;51.130;6.732;2023-07-16T10:31:40;54.87;;;6.20;;
2570;SDS011;1295;51.130;6.732;2023-07-16T10:34:05;55.20;;;5.67;;
2570;SDS011;1295;51.130;6.732;2023-07-16T10:36:38;58.17;;;6.27;;
2570;SDS011;1295;51.130;6.732;2023-07-16T10:39:03;58.43;;;4.53;;
2570;SDS011;1295;51.130;6.732;2023-07-16T10:41:28;57.03;;;5.20;;
2570;SDS011;1295;51.130;6.732;2023-07-16T10:43:54;58.30;;;5.10;;
2570;SDS011;1295;51.130;6.732;2023-07-16T10:46:20;54.87;;;4.50;;
2570;SDS011;1295;51.130;6.732;2023-07-16T10:48:46;59.33;;;5.63;;
2570;SDS011;1295;51.130;6.732;2023-07-16T10:51:13;53.57;;;5.00;;
2570;SDS011;1295;51.130;6.732;2023-07-16T10:53:40;54.97;;;4.37;;
2570;SDS011;1295;51.130;6.732;2023-07-16T10:56:02;59.90;;;5.70;;
2570;SDS011;1295;51.130;6.732;2023-07-16T10:58:28;59.00;;;5.37;;
2570;SDS011;1295;51.130;6.732;2023-07-16T11:00:54;55.87;;;4.10;;
2570;SDS011;1295;51.130;6.732;2023-07-16T11:03:19;55.73;;;4.93;;
2570;SDS011;1295;51.130;6.732;2023-07-16T11:05:45;55.20;;;4.43;;
2570;SDS011;1295;51.130;6.732;2023-07-16T11:08:11;64.33;;;5.40;;
2570;SDS011;1295;51.130;6.732;2023-07-16T11:10:36;55.90;;;4.17;;
2570;SDS011;1295;51.130;6.732;2023-07-16T11:13:02;56.87;;;5.20;;
2570;SDS011;1295;51.130;6.732;2023-07-16T11:15:30;55.30;;;4.47;;
2570;SDS011;1295;51.130;6.732;2023-07-16T11:17:56;60.10;;;4.93;;
2570;SDS011;1295;51.130;6.732;2023-07-16T11:20:21;54.80;;;4.43;;
2570;SDS011;1295;51.130;6.732;2023-07-16T11:22:47;53.77;;;4.30;;
2570;SDS011;1295;51.130;6.732;2023-07-16T11:25:13;57.03;;;4.77;;
2570;SDS011;1295;51.130;6.732;2023-07-16T11:27:40;53.60;;;5.70;;
2570;SDS011;1295;51.130;6.732;2023-07-16T11:30:04;56.70;;;4.93;;
2570;SDS011;1295;51.130;6.732;2023-07-16T11:32:33;55.33;;;4.20;;
2570;SDS011;1295;51.130;6.732;2023-07-16T11:34:58;56.47;;;5.93;;
2570;SDS011;1295;51.130;6.732;2023-07-16T11:37:24;53.00;;;4.10;;
2570;SDS011;1295;51.130;6.732;2023-07-16T11:39:49;54.13;;;4.10;;
2570;SDS011;1295;51.130;6.732;2023-07-16T11:42:22;56.27;;;4.80;;
2570;SDS011;1295;51.130;6.732;2023-07-16T11:44:43;54.70;;;4.13;;
2570;SDS011;1295;51.130;6.732;2023-07-16T11:47:09;54.10;;;4.97;;
2570;SDS011;1295;51.130;6.732;2023-07-16T11:49:35;54.13;;;4.27;;
2570;SDS011;1295;51.130;6.732;2023-07-16T11:52:00;56.40;;;4.43;;
2570;SDS011;1295;51.130;6.732;2023-07-16T11:54:26;55.57;;;4.30;;
2570;SDS011;1295;51.130;6.732;2023-07-16T11:56:51;57.27;;;4.60;;
2570;SDS011;1295;51.130;6.732;2023-07-16T11:59:17;53.77;;;4.50;;
2570;SDS011;1295;51.130;6.732;2023-07-16T12:01:43;57.43;;;5.20;;
2570;SDS011;1295;51.130;6.732;2023-07-16T12:04:09;56.30;;;6.90;;
2570;SDS011;1295;51.130;6.732;2023-07-16T12:06:35;55.40;;;5.63;;
2570;SDS011;1295;51.130;6.732;2023-07-16T12:09:07;54.30;;;4.30;;
2570;SDS011;1295;51.130;6.732;2023-07-16T12:11:33;56.80;;;4.70;;
2570;SDS011;1295;51.130;6.732;2023-07-16T12:13:59;60.73;;;5.50;;
2570;SDS011;1295;51.130;6.732;2023-07-16T12:16:25;54.80;;;4.83;;
2570;SDS011;1295;51.130;6.732;2023-07-16T12:18:56;57.73;;;5.07;;
2570;SDS011;1295;51.130;6.732;2023-07-16T12:21:22;56.17;;;5.67;;
2570;SDS011;1295;51.130;6.732;2023-07-16T12:23:48;55.47;;;5.67;;
2570;SDS011;1295;51.130;6.732;2023-07-16T12:26:14;58.00;;;5.37;;
2570;SDS011;1295;51.130;6.732;2023-07-16T12:28:40;56.43;;;5.23;;
2570;SDS011;1295;51.130;6.732;2023-07-16T12:31:05;56.00;;;5.03;;
2570;SDS011;1295;51.130;6.732;2023-07-16T12:33:31;57.73;;;3.90;;
2570;SDS011;1295;51.130;6.732;2023-07-16T12:35:57;56.53;;;4.30;;
2570;SDS011;1295;51.130;6.732;2023-07-16T12:38:30;54.97;;;4.80;;
2570;SDS011;1295;51.130;6.732;2023-07-16T12:40:55;55.00;;;4.17;;
2570;SDS011;1295;51.130;6.732;2023-07-16T12:43:21;59.53;;;5.07;;
2570;SDS011;1295;51.130;6.732;2023-07-16T12:45:47;51.40;;;3.90;;
2570;SDS011;1295;51.130;6.732;2023-07-16T12:48:13;57.60;;;5.10;;
2570;SDS011;1295;51.130;6.732;2023-07-16T12:50:39;58.67;;;4.67;;
2570;SDS011;1295;51.130;6.732;2023-07-16T12:53:04;56.10;;;4.30;;
2570;SDS011;1295;51.130;6.732;2023-07-16T12:55:30;52.60;;;4.63;;
2570;SDS011;1295;51.130;6.732;2023-07-16T12:57:56;55.97;;;5.10;;
2570;SDS011;1295;51.130;6.732;2023-07-16T13:00:21;58.63;;;12.50;;
2570;SDS011;1295;51.130;6.732;2023-07-16T13:02:47;54.90;;;3.93;;
2570;SDS011;1295;51.130;6.732;2023-07-16T13:05:12;54.10;;;4.03;;
2570;SDS011;1295;51.130;6.732;2023-07-16T13:07:38;53.63;;;3.53;;
2570;SDS011;1295;51.130;6.732;2023-07-16T13:10:05;58.63;;;4.73;;
2570;SDS011;1295;51.130;6.732;2023-07-16T13:12:31;54.73;;;4.30;;
2570;SDS011;1295;51.130;6.732;2023-07-16T13:14:57;54.00;;;4.30;;
2570;SDS011;1295;51.130;6.732;2023-07-16T13:17:22;54.13;;;5.40;;
2570;SDS011;1295;51.130;6.732;2023-07-16T13:19:48;65.17;;;6.63;;
2570;SDS011;1295;51.130;6.732;2023-07-16T13:22:13;54.73;;;4.10;;
2570;SDS011;1295;51.130;6.732;2023-07-16T13:24:39;54.23;;;4.17;;
2570;SDS011;1295;51.130;6.732;2023-07-16T13:27:05;55.30;;;4.27;;
2570;SDS011;1295;51.130;6.732;2023-07-16T13:29:30;52.60;;;3.93;;
2570;SDS011;1295;51.130;6.732;2023-07-16T13:31:56;54.93;;;4.20;;
2570;SDS011;1295;51.130;6.732;2023-07-16T13:34:22;54.50;;;3.93;;
2570;SDS011;1295;51.130;6.732;2023-07-16T13:36:48;53.40;;;4.63;;
2570;SDS011;1295;51.130;6.732;2023-07-16T13:39:14;55.37;;;4.03;;
2570;SDS011;1295;51.130;6.732;2023-07-16T13:41:39;55.97;;;4.30;;
2570;SDS011;1295;51.130;6.732;2023-07-16T13:44:05;53.00;;;3.80;;
2570;SDS011;1295;51.130;6.732;2023-07-16T13:46:30;54.57;;;4.60;;
2570;SDS011;1295;51.130;6.732;2023-07-16T13:48:56;55.77;;;3.97;;
2570;SDS011;1295;51.130;6.732;2023-07-16T13:51:22;56.90;;;4.70;;
2570;SDS011;1295;51.130;6.732;2023-07-16T13:53:48;54.83;;;4.60;;
2570;SDS011;1295;51.130;6.732;2023-07-16T13:56:14;54.73;;;4.30;;
2570;SDS011;1295;51.130;6.732;2023-07-16T13:58:39;54.40;;;5.13;;
2570;SDS011;1295;51.130;6.732;2023-07-16T14:01:06;56.10;;;4.50;;
2570;SDS011;1295;51.130;6.732;2023-07-16T14:03:31;54.13;;;3.93;;
2570;SDS011;1295;51.130;6.732;2023-07-16T14:05:57;60.30;;;4.50;;
2570;SDS011;1295;51.130;6.732;2023-07-16T14:08:23;58.47;;;4.47;;
2570;SDS011;1295;51.130;6.732;2023-07-16T14:10:49;53.27;;;5.10;;
2570;SDS011;1295;51.130;6.732;2023-07-16T14:13:14;55.10;;;3.80;;
2570;SDS011;1295;51.130;6.732;2023-07-16T14:15:41;57.23;;;4.47;;
2570;SDS011;1295;51.130;6.732;2023-07-16T14:18:06;53.83;;;3.70;;
2570;SDS011;1295;51.130;6.732;2023-07-16T14:20:32;67.43;;;4.60;;
2570;SDS011;1295;51.130;6.732;2023-07-16T14:22:58;58.17;;;4.73;;
2570;SDS011;1295;51.130;6.732;2023-07-16T14:25:23;55.33;;;3.97;;
2570;SDS011;1295;51.130;6.732;2023-07-16T14:27:49;52.70;;;3.33;;
2570;SDS011;1295;51.130;6.732;2023-07-16T14:30:15;56.10;;;3.57;;
2570;SDS011;1295;51.130;6.732;2023-07-16T14:32:40;55.40;;;4.00;;
2570;SDS011;1295;51.130;6.732;2023-07-16T14:35:06;55.20;;;3.97;;
2570;SDS011;1295;51.130;6.732;2023-07-16T14:37:32;53.80;;;4.40;;
2570;SDS011;1295;51.130;6.732;2023-07-16T14:39:58;56.67;;;4.30;;
2570;SDS011;1295;51.130;6.732;2023-07-16T14:42:23;54.50;;;4.10;;
2570;SDS011;1295;51.130;6.732;2023-07-16T14:44:49;56.00;;;3.67;;
2570;SDS011;1295;51.130;6.732;2023-07-16T14:47:14;58.13;;;4.13;;
2570;SDS011;1295;51.130;6.732;2023-07-16T14:49:40;54.50;;;4.00;;
2570;SDS011;1295;51.130;6.732;2023-07-16T14:52:06;56.03;;;5.20;;
2570;SDS011;1295;51.130;6.732;2023-07-16T14:54:31;54.13;;;4.30;;